PWSweather.com
Personal Weather Stations
Station Observations
KFLPALMB1
Lockmar, Palm Bay, FL 32907

LockmarPalm Bay, FL 32907

Lat: 28.01, Lon: -80.4

Elevation: 20

Station Type:

http://www.palmbayweather.com

Latest ConditionsUpdated 5:00:06 PM EST Sunday, Jan 20, 2019
Currently Today's Max Today's Min Today's Average
Temperature 59.6°F15.3°C 68.8°F20.4°C 59.6°F15.3°C 65.3°F18.5°C
Dew Point 47.4°F8.6°C 65.1°F18.4°C 47.4°F8.6°C 57.1°F13.9°C
Winds 2.0 mph W3.2 kmh W 9.0 mph -14.5 kmh - - 2.9 mph 4.7 kmh
Wind Gusts 3.0 mph4.8 kmh 21.0 mph33.8 kmh - -
Humidity 64% 91% 56% 76%
Pressure 29.93 in1013.5 mb 29.93 in1013.5 mb 29.75 in1007.5 mb -
Hour Temp Dew Point Humidity Winds Wind Gusts Pressure Precip Precip Rate Daily Precip Total
05:00 PM 59.6°F15.3°C 47.4°F8.6°C 64% 2.0 mph W3.2 kmh W 3.0 mph4.8 kmh 29.93 in1013.5 mb 0.00 in0.0 mm 0.00 in0.0 mm 0.00 in0.0 mm
04:50 PM 60.2°F15.7°C 48.0°F8.9°C 64% 2.0 mph WSW3.2 kmh WSW 11.0 mph17.7 kmh 29.92 in1013.2 mb 0.00 in0.0 mm 0.00 in0.0 mm 0.00 in0.0 mm
04:40 PM 60.8°F16.0°C 48.1°F8.9°C 63% 5.0 mph WNW8.0 kmh WNW 13.0 mph20.9 kmh 29.92 in1013.2 mb 0.00 in0.0 mm 0.00 in0.0 mm 0.00 in0.0 mm
04:30 PM 61.5°F16.4°C 48.8°F9.3°C 63% 4.0 mph SW6.4 kmh SW 4.0 mph6.4 kmh 29.92 in1013.2 mb 0.00 in0.0 mm 0.00 in0.0 mm 0.00 in0.0 mm
04:20 PM 61.7°F16.5°C 48.6°F9.2°C 62% 5.0 mph N8.0 kmh N 13.0 mph20.9 kmh 29.91 in1012.9 mb 0.00 in0.0 mm 0.00 in0.0 mm 0.00 in0.0 mm
04:10 PM 62.5°F16.9°C 49.8°F9.9°C 63% Calm Calm 5.0 mph8.0 kmh 29.90 in1012.5 mb 0.00 in0.0 mm 0.00 in0.0 mm 0.00 in0.0 mm
04:00 PM 62.3°F16.8°C 49.1°F9.5°C 62% 6.0 mph W9.7 kmh W 7.0 mph11.3 kmh 29.90 in1012.5 mb 0.00 in0.0 mm 0.00 in0.0 mm 0.00 in0.0 mm
03:00 PM 64.4°F18.0°C 49.3°F9.6°C 58% 2.0 mph NW3.2 kmh NW 3.0 mph4.8 kmh 29.88 in1011.9 mb 0.00 in0.0 mm 0.00 in0.0 mm 0.00 in0.0 mm
02:50 PM 65.1°F18.4°C 50.0°F10.0°C 58% 3.0 mph WSW4.8 kmh WSW 13.0 mph20.9 kmh 29.88 in1011.9 mb 0.00 in0.0 mm 0.00 in0.0 mm 0.00 in0.0 mm
02:40 PM 64.7°F18.2°C 50.1°F10.1°C 59% 5.0 mph W8.0 kmh W 12.0 mph19.3 kmh 29.88 in1011.9 mb 0.00 in0.0 mm 0.00 in0.0 mm 0.00 in0.0 mm
02:30 PM 65.6°F18.7°C 49.5°F9.7°C 56% 6.0 mph SE9.7 kmh SE 6.0 mph9.7 kmh 29.87 in1011.5 mb 0.00 in0.0 mm 0.00 in0.0 mm 0.00 in0.0 mm
02:20 PM 65.7°F18.7°C 50.1°F10.1°C 57% 2.0 mph WSW3.2 kmh WSW 13.0 mph20.9 kmh 29.87 in1011.5 mb 0.00 in0.0 mm 0.00 in0.0 mm 0.00 in0.0 mm
02:10 PM 66.1°F18.9°C 50.4°F10.2°C 57% 3.0 mph WNW4.8 kmh WNW 15.0 mph24.1 kmh 29.86 in1011.2 mb 0.00 in0.0 mm 0.00 in0.0 mm 0.00 in0.0 mm
02:00 PM 65.2°F18.4°C 50.1°F10.1°C 58% 5.0 mph NW8.0 kmh NW 8.0 mph12.9 kmh 29.86 in1011.2 mb 0.00 in0.0 mm 0.00 in0.0 mm 0.00 in0.0 mm
12:50 PM 68.8°F20.4°C 52.5°F11.4°C 56% 6.0 mph WSW9.7 kmh WSW 12.0 mph19.3 kmh 29.86 in1011.2 mb 0.00 in0.0 mm 0.00 in0.0 mm 0.00 in0.0 mm
12:40 PM 68.0°F20.0°C 52.2°F11.2°C 57% 8.0 mph WSW12.9 kmh WSW 11.0 mph17.7 kmh 29.86 in1011.2 mb 0.00 in0.0 mm 0.00 in0.0 mm 0.00 in0.0 mm
12:30 PM 66.8°F19.3°C 51.6°F10.9°C 58% 3.0 mph W4.8 kmh W 3.0 mph4.8 kmh 29.86 in1011.2 mb 0.00 in0.0 mm 0.00 in0.0 mm 0.00 in0.0 mm
12:20 PM 67.2°F19.6°C 51.9°F11.1°C 58% 4.0 mph NNW6.4 kmh NNW 21.0 mph33.8 kmh 29.86 in1011.2 mb 0.00 in0.0 mm 0.00 in0.0 mm 0.00 in0.0 mm
12:10 PM 66.9°F19.4°C 51.7°F10.9°C 58% 4.0 mph W6.4 kmh W 21.0 mph33.8 kmh 29.87 in1011.5 mb 0.00 in0.0 mm 0.00 in0.0 mm 0.00 in0.0 mm
12:00 PM 66.6°F19.2°C 52.3°F11.3°C 60% 9.0 mph W14.5 kmh W 9.0 mph14.5 kmh 29.86 in1011.2 mb 0.00 in0.0 mm 0.00 in0.0 mm 0.00 in0.0 mm
10:50 AM 65.2°F18.4°C 54.8°F12.7°C 69% 2.0 mph WSW3.2 kmh WSW 10.0 mph16.1 kmh 29.87 in1011.5 mb 0.00 in0.0 mm 0.00 in0.0 mm 0.00 in0.0 mm
10:40 AM 65.3°F18.5°C 54.5°F12.5°C 68% 3.0 mph SSE4.8 kmh SSE 18.0 mph29.0 kmh 29.87 in1011.5 mb 0.00 in0.0 mm 0.00 in0.0 mm 0.00 in0.0 mm
10:30 AM 64.9°F18.3°C 54.9°F12.7°C 70% 1.0 mph SW1.6 kmh SW 2.0 mph3.2 kmh 29.87 in1011.5 mb 0.00 in0.0 mm 0.00 in0.0 mm 0.00 in0.0 mm
10:20 AM 64.9°F18.3°C 55.3°F12.9°C 71% 2.0 mph W3.2 kmh W 9.0 mph14.5 kmh 29.86 in1011.2 mb 0.00 in0.0 mm 0.00 in0.0 mm 0.00 in0.0 mm
10:10 AM 65.1°F18.4°C 54.7°F12.6°C 69% 3.0 mph WNW4.8 kmh WNW 15.0 mph24.1 kmh 29.87 in1011.5 mb 0.00 in0.0 mm 0.00 in0.0 mm 0.00 in0.0 mm
10:00 AM 65.6°F18.7°C 55.6°F13.1°C 70% 5.0 mph WSW8.0 kmh WSW 6.0 mph9.7 kmh 29.86 in1011.2 mb 0.00 in0.0 mm 0.00 in0.0 mm 0.00 in0.0 mm
08:50 AM 63.9°F17.7°C 59.3°F15.2°C 85% 5.0 mph WSW8.0 kmh WSW 5.0 mph8.0 kmh 29.83 in1010.2 mb 0.00 in0.0 mm 0.00 in0.0 mm 0.00 in0.0 mm
08:40 AM 63.4°F17.4°C 58.8°F14.9°C 85% 3.0 mph WNW4.8 kmh WNW 4.0 mph6.4 kmh 29.83 in1010.2 mb 0.00 in0.0 mm 0.00 in0.0 mm 0.00 in0.0 mm
08:30 AM 63.0°F17.2°C 58.8°F14.9°C 86% 1.0 mph W1.6 kmh W 1.0 mph1.6 kmh 29.83 in1010.2 mb 0.00 in0.0 mm 0.00 in0.0 mm 0.00 in0.0 mm
08:20 AM 63.1°F17.3°C 58.9°F14.9°C 86% 1.0 mph S1.6 kmh S 6.0 mph9.7 kmh 29.83 in1010.2 mb 0.00 in0.0 mm 0.00 in0.0 mm 0.00 in0.0 mm
08:10 AM 63.2°F17.3°C 59.3°F15.2°C 87% Calm Calm 6.0 mph9.7 kmh 29.82 in1009.8 mb 0.00 in0.0 mm 0.00 in0.0 mm 0.00 in0.0 mm
08:00 AM 63.2°F17.3°C 59.6°F15.3°C 88% 1.0 mph NW1.6 kmh NW 2.0 mph3.2 kmh 29.82 in1009.8 mb 0.00 in0.0 mm 0.00 in0.0 mm 0.00 in0.0 mm
07:50 AM 63.2°F17.3°C 59.9°F15.5°C 89% 4.0 mph SW6.4 kmh SW 8.0 mph12.9 kmh 29.82 in1009.8 mb 0.00 in0.0 mm 0.00 in0.0 mm 0.00 in0.0 mm
06:50 AM 66.1°F18.9°C 63.1°F17.3°C 90% 3.0 mph WSW4.8 kmh WSW 12.0 mph19.3 kmh 29.78 in1008.5 mb 0.00 in0.0 mm 0.00 in0.0 mm 0.00 in0.0 mm
06:40 AM 67.0°F19.4°C 64.3°F17.9°C 91% 1.0 mph SW1.6 kmh SW 12.0 mph19.3 kmh 29.78 in1008.5 mb 0.00 in0.0 mm 0.00 in0.0 mm 0.00 in0.0 mm
06:30 AM 67.3°F19.6°C 64.6°F18.1°C 91% 2.0 mph WNW3.2 kmh WNW 4.0 mph6.4 kmh 29.77 in1008.1 mb 0.00 in0.0 mm 0.00 in0.0 mm 0.00 in0.0 mm
06:20 AM 67.3°F19.6°C 64.6°F18.1°C 91% 1.0 mph SE1.6 kmh SE 4.0 mph6.4 kmh 29.76 in1007.8 mb 0.00 in0.0 mm 0.00 in0.0 mm 0.00 in0.0 mm
06:10 AM 67.2°F19.6°C 64.5°F18.1°C 91% 3.0 mph WNW4.8 kmh WNW 11.0 mph17.7 kmh 29.76 in1007.8 mb 0.00 in0.0 mm 0.00 in0.0 mm 0.00 in0.0 mm
06:00 AM 67.3°F19.6°C 64.6°F18.1°C 91% 2.0 mph S3.2 kmh S 2.0 mph3.2 kmh 29.76 in1007.8 mb 0.00 in0.0 mm 0.00 in0.0 mm 0.00 in0.0 mm
05:50 AM 67.6°F19.8°C 64.9°F18.3°C 91% 3.0 mph SW4.8 kmh SW 14.0 mph22.5 kmh 29.75 in1007.5 mb 0.00 in0.0 mm 0.00 in0.0 mm 0.00 in0.0 mm
04:50 AM 67.8°F19.9°C 65.1°F18.4°C 91% 2.0 mph SSE3.2 kmh SSE 7.0 mph11.3 kmh 29.75 in1007.5 mb 0.00 in0.0 mm 0.00 in0.0 mm 0.00 in0.0 mm
04:40 AM 67.9°F19.9°C 64.9°F18.3°C 90% 2.0 mph SW3.2 kmh SW 8.0 mph12.9 kmh 29.75 in1007.5 mb 0.00 in0.0 mm 0.00 in0.0 mm 0.00 in0.0 mm
04:30 AM 68.1°F20.1°C 64.7°F18.2°C 89% Calm Calm -- 29.76 in1007.8 mb 0.00 in0.0 mm 0.00 in0.0 mm 0.00 in0.0 mm
04:20 AM 68.2°F20.1°C 64.5°F18.1°C 88% 1.0 mph SW1.6 kmh SW 9.0 mph14.5 kmh 29.76 in1007.8 mb 0.00 in0.0 mm 0.00 in0.0 mm 0.00 in0.0 mm
04:10 AM 68.4°F20.2°C 64.4°F18.0°C 87% 4.0 mph S6.4 kmh S 8.0 mph12.9 kmh 29.76 in1007.8 mb 0.00 in0.0 mm 0.00 in0.0 mm 0.00 in0.0 mm
04:00 AM 68.2°F20.1°C 63.9°F17.7°C 86% 4.0 mph S6.4 kmh S 6.0 mph9.7 kmh 29.77 in1008.1 mb 0.00 in0.0 mm 0.00 in0.0 mm 0.00 in0.0 mm
03:50 AM 67.8°F19.9°C 63.5°F17.5°C 86% 5.0 mph SSE8.0 kmh SSE 11.0 mph17.7 kmh 29.77 in1008.1 mb 0.00 in0.0 mm 0.00 in0.0 mm 0.00 in0.0 mm
02:50 AM 65.9°F18.8°C 61.6°F16.4°C 86% 2.0 mph WNW3.2 kmh WNW 12.0 mph19.3 kmh 29.79 in1008.8 mb 0.00 in0.0 mm 0.00 in0.0 mm 0.00 in0.0 mm
02:40 AM 65.4°F18.6°C 61.1°F16.2°C 86% 1.0 mph SW1.6 kmh SW 6.0 mph9.7 kmh 29.79 in1008.8 mb 0.00 in0.0 mm 0.00 in0.0 mm 0.00 in0.0 mm
02:30 AM 65.2°F18.4°C 60.9°F16.1°C 86% 1.0 mph S1.6 kmh S 2.0 mph3.2 kmh 29.79 in1008.8 mb 0.00 in0.0 mm 0.00 in0.0 mm 0.00 in0.0 mm
02:20 AM 65.1°F18.4°C 60.8°F16.0°C 86% 1.0 mph SSW1.6 kmh SSW 9.0 mph14.5 kmh 29.80 in1009.1 mb 0.00 in0.0 mm 0.00 in0.0 mm 0.00 in0.0 mm
02:10 AM 64.9°F18.3°C 60.3°F15.7°C 85% 2.0 mph WSW3.2 kmh WSW 6.0 mph9.7 kmh 29.80 in1009.1 mb 0.00 in0.0 mm 0.00 in0.0 mm 0.00 in0.0 mm
02:00 AM 64.8°F18.2°C 60.2°F15.7°C 85% 3.0 mph S4.8 kmh S 4.0 mph6.4 kmh 29.80 in1009.1 mb 0.00 in0.0 mm 0.00 in0.0 mm 0.00 in0.0 mm
01:50 AM 64.8°F18.2°C 59.9°F15.5°C 84% 3.0 mph S4.8 kmh S 7.0 mph11.3 kmh 29.80 in1009.1 mb 0.00 in0.0 mm 0.00 in0.0 mm 0.00 in0.0 mm
12:40 AM 65.0°F18.3°C 59.0°F15.0°C 81% 1.0 mph SE1.6 kmh SE 7.0 mph11.3 kmh 29.84 in1010.5 mb 0.00 in0.0 mm 0.00 in0.0 mm 0.00 in0.0 mm
12:30 AM 65.2°F18.4°C 58.9°F14.9°C 80% 4.0 mph S6.4 kmh S 4.0 mph6.4 kmh 29.85 in1010.8 mb 0.00 in0.0 mm 0.00 in0.0 mm 0.00 in0.0 mm
12:20 AM 65.4°F18.6°C 59.1°F15.1°C 80% 1.0 mph SSE1.6 kmh SSE 7.0 mph11.3 kmh 29.86 in1011.2 mb 0.00 in0.0 mm 0.00 in0.0 mm 0.00 in0.0 mm
12:10 AM 65.5°F18.6°C 58.8°F14.9°C 79% 2.0 mph SSE3.2 kmh SSE 9.0 mph14.5 kmh 29.86 in1011.2 mb 0.00 in0.0 mm 0.00 in0.0 mm 0.00 in0.0 mm
12:00 AM 65.7°F18.7°C 58.7°F14.8°C 78% 2.0 mph SW3.2 kmh SW 2.0 mph3.2 kmh 29.86 in1011.2 mb 0.00 in0.0 mm 0.00 in0.0 mm 0.00 in0.0 mm